Warnow Moon — A8VX3 — position and weather

sailwx.info

Track history (hours):
 
Tides and Currents Weather Stations Pressure Air Temp Water Temp Dewpoint Dewpoint Depression Visibility Wind Speed Wind Dir Waves Ship Positions

Warnow Moon

Last reported at 2014-Oct-24 08:12 UTC. Time now 2014-Oct-24 16:19 UTC.
Position N 43°24' E 003°43'.

Length 180 m; draft 10.6 m.

Type: Cargo ship. MMSI: 636092050.

Date/timePositionNaut miles runAvg speedWind from/ knotsBaromVisibWave heightAir tempDewpointWater temp
2014-Oct-24 08:12N 43°24' E 003°43'49 5.1
2014-Oct-23 22:31N 42°35' E 003°40'11 9.4
2014-Oct-23 21:19N 42°24' E 003°39'10 9.3
2014-Oct-23 20:16N 42°14' E 003°37'8 9.3
2014-Oct-23 19:24N 42°06' E 003°36'8 9.3
2014-Oct-23 18:31N 41°58' E 003°35'1010.1
2014-Oct-23 17:30N 41°49' E 003°29'9 9.2
2014-Oct-23 16:30N 41°42' E 003°21'1210.9
2014-Oct-23 15:24N 41°32' E 003°12'1011.1
2014-Oct-23 14:29N 41°24' E 003°04'910.3
2014-Oct-23 13:33N 41°16' E 002°56'1311.2
2014-Oct-23 12:23N 41°05' E 002°46'3 3.3
2014-Oct-23 11:33N 41°03' E 002°44'4 4.2
2014-Oct-23 10:33N 40°60' E 002°41'1912.9
2014-Oct-23 09:07N 40°45' E 002°26'1312.6
2014-Oct-23 08:04N 40°34' E 002°16'1212.9
2014-Oct-23 07:09N 40°25' E 002°06'812.1
2014-Oct-23 06:27N 40°18' E 001°60'17212.2
2014-Oct-22 16:24N 37°59' W 000°09'1612.3
2014-Oct-22 15:05N 37°45' W 000°20'612.1
2014-Oct-22 14:33N 37°40' W 000°25'1211.9
2014-Oct-22 13:33N 37°30' W 000°34'1211.6
2014-Oct-22 12:33N 37°23' W 000°45'1311.7
2014-Oct-22 11:27N 37°14' W 000°57'21912.2
2014-Oct-21 17:33N 36°04' W 005°16'7 5.0
2014-Oct-21 16:11N 36°08' W 005°23'0 0.1
2014-Oct-21 15:32N 36°08' W 005°23'0 0.0
2014-Oct-21 14:26N 36°08' W 005°23'0 0.0
2014-Oct-21 13:32N 36°08' W 005°23'2 0.4
2014-Oct-21 09:28N 36°06' W 005°23'4 4.0
2014-Oct-21 08:33N 36°05' W 005°18'5 0.6
2014-Oct-21 00:26N 36°00' W 005°15'1213.3
2014-Oct-20 23:33N 35°57' W 005°29'5310.5
2014-Oct-20 18:32N 35°38' W 006°30'1212.3
2014-Oct-20 17:33N 35°29' W 006°40'  
Track history (hours):
 
Tides and Currents Weather Stations Pressure Air Temp Water Temp Dewpoint Dewpoint Depression Visibility Wind Speed Wind Dir Waves Ship Positions

Warnow Moon

Last reported at 2014-Oct-24 08:12 UTC. Time now 2014-Oct-24 16:19 UTC.
Position N 43°24' E 003°43'.

Length 180 m; draft 10.6 m.

Type: Cargo ship. MMSI: 636092050.

Date/timePositionNaut miles runAvg speedWind from/ knotsBaromVisibWave heightAir tempDewpointWater temp
2014-Oct-24 08:12N 43°24' E 003°43'49 5.1
2014-Oct-23 22:31N 42°35' E 003°40'11 9.4
2014-Oct-23 21:19N 42°24' E 003°39'10 9.3
2014-Oct-23 20:16N 42°14' E 003°37'8 9.3
2014-Oct-23 19:24N 42°06' E 003°36'8 9.3
2014-Oct-23 18:31N 41°58' E 003°35'1010.1
2014-Oct-23 17:30N 41°49' E 003°29'9 9.2
2014-Oct-23 16:30N 41°42' E 003°21'1210.9
2014-Oct-23 15:24N 41°32' E 003°12'1011.1
2014-Oct-23 14:29N 41°24' E 003°04'910.3
2014-Oct-23 13:33N 41°16' E 002°56'1311.2
2014-Oct-23 12:23N 41°05' E 002°46'3 3.3
2014-Oct-23 11:33N 41°03' E 002°44'4 4.2
2014-Oct-23 10:33N 40°60' E 002°41'1912.9
2014-Oct-23 09:07N 40°45' E 002°26'1312.6
2014-Oct-23 08:04N 40°34' E 002°16'1212.9
2014-Oct-23 07:09N 40°25' E 002°06'812.1
2014-Oct-23 06:27N 40°18' E 001°60'17212.2
2014-Oct-22 16:24N 37°59' W 000°09'1612.3
2014-Oct-22 15:05N 37°45' W 000°20'612.1
2014-Oct-22 14:33N 37°40' W 000°25'1211.9
2014-Oct-22 13:33N 37°30' W 000°34'1211.6
2014-Oct-22 12:33N 37°23' W 000°45'1311.7
2014-Oct-22 11:27N 37°14' W 000°57'21912.2
2014-Oct-21 17:33N 36°04' W 005°16'7 5.0
2014-Oct-21 16:11N 36°08' W 005°23'0 0.1
2014-Oct-21 15:32N 36°08' W 005°23'0 0.0
2014-Oct-21 14:26N 36°08' W 005°23'0 0.0
2014-Oct-21 13:32N 36°08' W 005°23'2 0.4
2014-Oct-21 09:28N 36°06' W 005°23'4 4.0
2014-Oct-21 08:33N 36°05' W 005°18'5 0.6
2014-Oct-21 00:26N 36°00' W 005°15'1213.3
2014-Oct-20 23:33N 35°57' W 005°29'5310.5
2014-Oct-20 18:32N 35°38' W 006°30'1212.3
2014-Oct-20 17:33N 35°29' W 006°40'  

Dump ship's entire track history